map of CLQ home
CLQ - Airport
Location
City:  Colima, Colima, México
Name:Licenciado Miguel de la Madrid
ICAO:MMIA
IATA:CLQ

Details
Type:Airport (Aerodrome, Airfield)
Latitude:19°16'37"N (19.277011)
Longitude:103°34'39"W (-103.577396)
Datum:WGS 1984
Elevation:2467 ft (752 m)
Variation:6.22°E (WMM2015 magnetic declination)
-0.10° annual change
Runways:1
Longest:7546 × 148 ft (2300 × 45 m), paved

Time
Time Zone:UTC-6 (DST-5)
Local Time:

Weather
METAR:MMIA 170250Z 00000KT 8SM SKC 23/17 A3006 RMK SLP/// 5//// 9//

Related Locations
Nearby:
Farthest:RRG: 11596 mi / 18662 km
Plaine Corail [Sir Gaëtan Duval Airport (Plaine Corail Airport)], Rodrigues Island, MU

Find:

   beyond  
but within

Other Information
Maps:
NOTAMs:
Links:
Sources:

  
  • flag of México
  • flag of Colima
  

Sectional Chart

Flight Planning
at skyvector.com

Satellite Image

Google Maps Satellite view

 

Copyright © 2004-2018 Karl L. Swartz. All rights reserved.
The Great Circle Mapper name and logo are trademarks of the Great Circle Mapper.
All other trademarks mentioned herein belong to their respective owners.
Please see credits for attibutions and further copyright information.

  Follow gcmap on Facebook Follow gcmap on Twitter Follow gcmap on Google+ GCmap on LinkedIn

hCard Microformat

Geo Microformat